sensor_id;sensor_type;location;lat;lon;timestamp;P1;durP1;ratioP1;P2;durP2;ratioP2
11037;SDS011;5572;49.540;11.932;2022-08-19T00:01:15;27.33;;;22.50;;
11037;SDS011;5572;49.540;11.932;2022-08-19T00:03:42;19.60;;;16.07;;
11037;SDS011;5572;49.540;11.932;2022-08-19T00:06:09;15.47;;;12.33;;
11037;SDS011;5572;49.540;11.932;2022-08-19T00:08:37;16.97;;;14.27;;
11037;SDS011;5572;49.540;11.932;2022-08-19T00:11:05;10.10;;;9.10;;
11037;SDS011;5572;49.540;11.932;2022-08-19T00:13:38;14.83;;;12.47;;
11037;SDS011;5572;49.540;11.932;2022-08-19T00:16:05;17.40;;;14.87;;
11037;SDS011;5572;49.540;11.932;2022-08-19T00:18:32;16.63;;;14.40;;
11037;SDS011;5572;49.540;11.932;2022-08-19T00:21:00;19.43;;;13.13;;
11037;SDS011;5572;49.540;11.932;2022-08-19T00:23:27;16.40;;;12.57;;
11037;SDS011;5572;49.540;11.932;2022-08-19T00:25:54;11.33;;;9.10;;
11037;SDS011;5572;49.540;11.932;2022-08-19T00:28:20;13.60;;;12.20;;
11037;SDS011;5572;49.540;11.932;2022-08-19T00:30:48;15.73;;;11.50;;
11037;SDS011;5572;49.540;11.932;2022-08-19T00:33:16;12.13;;;10.83;;
11037;SDS011;5572;49.540;11.932;2022-08-19T00:35:43;15.27;;;12.93;;
11037;SDS011;5572;49.540;11.932;2022-08-19T00:38:09;16.60;;;12.83;;
11037;SDS011;5572;49.540;11.932;2022-08-19T00:40:36;14.67;;;13.20;;
11037;SDS011;5572;49.540;11.932;2022-08-19T00:43:07;16.83;;;15.07;;
11037;SDS011;5572;49.540;11.932;2022-08-19T00:45:34;8.40;;;7.57;;
11037;SDS011;5572;49.540;11.932;2022-08-19T00:48:02;11.50;;;10.30;;
11037;SDS011;5572;49.540;11.932;2022-08-19T00:50:30;9.70;;;8.70;;
11037;SDS011;5572;49.540;11.932;2022-08-19T00:52:57;12.70;;;9.77;;
11037;SDS011;5572;49.540;11.932;2022-08-19T00:55:25;15.77;;;13.53;;
11037;SDS011;5572;49.540;11.932;2022-08-19T00:57:55;9.63;;;8.63;;
11037;SDS011;5572;49.540;11.932;2022-08-19T01:00:24;9.67;;;8.77;;
11037;SDS011;5572;49.540;11.932;2022-08-19T01:02:52;15.97;;;12.67;;
11037;SDS011;5572;49.540;11.932;2022-08-19T01:05:21;16.07;;;12.70;;
11037;SDS011;5572;49.540;11.932;2022-08-19T01:11:11;19.10;;;16.20;;
11037;SDS011;5572;49.540;11.932;2022-08-19T01:13:38;17.30;;;12.87;;
11037;SDS011;5572;49.540;11.932;2022-08-19T01:16:05;16.53;;;12.50;;
11037;SDS011;5572;49.540;11.932;2022-08-19T01:18:35;12.00;;;10.40;;
11037;SDS011;5572;49.540;11.932;2022-08-19T01:21:08;10.40;;;8.00;;
11037;SDS011;5572;49.540;11.932;2022-08-19T01:23:42;18.93;;;13.77;;
11037;SDS011;5572;49.540;11.932;2022-08-19T01:26:09;14.43;;;12.90;;
11037;SDS011;5572;49.540;11.932;2022-08-19T01:28:38;16.67;;;14.60;;
11037;SDS011;5572;49.540;11.932;2022-08-19T01:31:06;19.70;;;15.07;;
11037;SDS011;5572;49.540;11.932;2022-08-19T01:33:36;21.43;;;17.07;;
11037;SDS011;5572;49.540;11.932;2022-08-19T01:36:04;16.10;;;14.40;;
11037;SDS011;5572;49.540;11.932;2022-08-19T01:38:34;17.80;;;15.77;;
11037;SDS011;5572;49.540;11.932;2022-08-19T01:41:03;20.60;;;16.93;;
11037;SDS011;5572;49.540;11.932;2022-08-19T01:43:31;18.63;;;14.97;;
11037;SDS011;5572;49.540;11.932;2022-08-19T01:45:58;17.93;;;16.03;;
11037;SDS011;5572;49.540;11.932;2022-08-19T01:48:25;14.13;;;11.13;;
11037;SDS011;5572;49.540;11.932;2022-08-19T01:50:54;15.47;;;12.93;;
11037;SDS011;5572;49.540;11.932;2022-08-19T01:53:20;19.27;;;15.27;;
11037;SDS011;5572;49.540;11.932;2022-08-19T01:55:47;18.90;;;14.83;;
11037;SDS011;5572;49.540;11.932;2022-08-19T01:58:16;16.33;;;13.00;;
11037;SDS011;5572;49.540;11.932;2022-08-19T02:00:46;14.13;;;11.77;;
11037;SDS011;5572;49.540;11.932;2022-08-19T02:03:13;15.67;;;13.47;;
11037;SDS011;5572;49.540;11.932;2022-08-19T02:05:41;13.73;;;11.93;;
11037;SDS011;5572;49.540;11.932;2022-08-19T02:08:09;10.50;;;9.47;;
11037;SDS011;5572;49.540;11.932;2022-08-19T02:10:39;15.43;;;13.80;;
11037;SDS011;5572;49.540;11.932;2022-08-19T02:13:07;16.13;;;14.00;;
11037;SDS011;5572;49.540;11.932;2022-08-19T02:15:36;22.87;;;14.23;;
11037;SDS011;5572;49.540;11.932;2022-08-19T02:18:02;17.10;;;14.17;;
11037;SDS011;5572;49.540;11.932;2022-08-19T02:20:30;16.80;;;14.83;;
11037;SDS011;5572;49.540;11.932;2022-08-19T02:22:56;16.37;;;14.33;;
11037;SDS011;5572;49.540;11.932;2022-08-19T02:25:23;14.93;;;11.10;;
11037;SDS011;5572;49.540;11.932;2022-08-19T02:27:50;17.23;;;13.97;;
11037;SDS011;5572;49.540;11.932;2022-08-19T02:30:16;17.13;;;15.27;;
11037;SDS011;5572;49.540;11.932;2022-08-19T02:32:45;12.30;;;11.03;;
11037;SDS011;5572;49.540;11.932;2022-08-19T02:35:12;17.77;;;14.23;;
11037;SDS011;5572;49.540;11.932;2022-08-19T02:37:39;17.87;;;14.33;;
11037;SDS011;5572;49.540;11.932;2022-08-19T02:40:23;15.67;;;12.50;;
11037;SDS011;5572;49.540;11.932;2022-08-19T02:42:49;12.67;;;10.90;;
11037;SDS011;5572;49.540;11.932;2022-08-19T02:45:16;21.10;;;16.53;;
11037;SDS011;5572;49.540;11.932;2022-08-19T02:47:42;20.93;;;15.50;;
11037;SDS011;5572;49.540;11.932;2022-08-19T02:50:10;17.33;;;15.57;;
11037;SDS011;5572;49.540;11.932;2022-08-19T02:52:37;21.47;;;16.67;;
11037;SDS011;5572;49.540;11.932;2022-08-19T02:55:04;23.57;;;16.37;;
11037;SDS011;5572;49.540;11.932;2022-08-19T02:57:32;13.17;;;9.93;;
11037;SDS011;5572;49.540;11.932;2022-08-19T02:59:59;21.00;;;18.10;;
11037;SDS011;5572;49.540;11.932;2022-08-19T03:02:26;14.03;;;12.40;;
11037;SDS011;5572;49.540;11.932;2022-08-19T03:04:53;19.13;;;17.07;;
11037;SDS011;5572;49.540;11.932;2022-08-19T03:07:21;14.43;;;13.03;;
11037;SDS011;5572;49.540;11.932;2022-08-19T03:09:47;19.30;;;15.30;;
11037;SDS011;5572;49.540;11.932;2022-08-19T03:12:14;11.80;;;10.47;;
11037;SDS011;5572;49.540;11.932;2022-08-19T03:14:40;15.87;;;13.67;;
11037;SDS011;5572;49.540;11.932;2022-08-19T03:17:07;13.20;;;11.50;;
11037;SDS011;5572;49.540;11.932;2022-08-19T03:19:34;17.53;;;15.17;;
11037;SDS011;5572;49.540;11.932;2022-08-19T03:22:00;14.53;;;12.40;;
11037;SDS011;5572;49.540;11.932;2022-08-19T03:24:29;22.27;;;16.13;;
11037;SDS011;5572;49.540;11.932;2022-08-19T03:26:55;19.00;;;16.93;;
11037;SDS011;5572;49.540;11.932;2022-08-19T03:29:25;15.67;;;10.90;;
11037;SDS011;5572;49.540;11.932;2022-08-19T03:31:55;19.30;;;15.70;;
11037;SDS011;5572;49.540;11.932;2022-08-19T03:34:23;10.33;;;9.23;;
11037;SDS011;5572;49.540;11.932;2022-08-19T03:36:51;17.13;;;15.43;;
11037;SDS011;5572;49.540;11.932;2022-08-19T03:39:18;18.43;;;15.73;;
11037;SDS011;5572;49.540;11.932;2022-08-19T03:41:47;26.30;;;19.47;;
11037;SDS011;5572;49.540;11.932;2022-08-19T03:44:16;18.90;;;16.63;;
11037;SDS011;5572;49.540;11.932;2022-08-19T03:46:45;16.50;;;14.73;;
11037;SDS011;5572;49.540;11.932;2022-08-19T03:49:13;24.00;;;16.27;;
11037;SDS011;5572;49.540;11.932;2022-08-19T03:51:40;18.20;;;13.90;;
11037;SDS011;5572;49.540;11.932;2022-08-19T03:54:09;16.17;;;14.33;;
11037;SDS011;5572;49.540;11.932;2022-08-19T03:56:38;15.87;;;13.13;;
11037;SDS011;5572;49.540;11.932;2022-08-19T03:59:10;15.53;;;13.93;;
11037;SDS011;5572;49.540;11.932;2022-08-19T04:01:39;16.57;;;11.80;;
11037;SDS011;5572;49.540;11.932;2022-08-19T04:04:05;17.47;;;14.47;;
11037;SDS011;5572;49.540;11.932;2022-08-19T04:06:33;17.03;;;14.30;;
11037;SDS011;5572;49.540;11.932;2022-08-19T04:09:02;15.37;;;13.70;;
11037;SDS011;5572;49.540;11.932;2022-08-19T04:11:32;15.53;;;13.87;;
11037;SDS011;5572;49.540;11.932;2022-08-19T04:14:00;6.70;;;6.10;;
11037;SDS011;5572;49.540;11.932;2022-08-19T04:16:28;8.03;;;7.33;;
11037;SDS011;5572;49.540;11.932;2022-08-19T04:18:55;16.70;;;13.23;;
11037;SDS011;5572;49.540;11.932;2022-08-19T04:21:23;11.37;;;10.17;;
11037;SDS011;5572;49.540;11.932;2022-08-19T04:23:51;12.93;;;11.20;;
11037;SDS011;5572;49.540;11.932;2022-08-19T04:26:20;12.47;;;10.17;;
11037;SDS011;5572;49.540;11.932;2022-08-19T04:28:48;13.33;;;11.77;;
11037;SDS011;5572;49.540;11.932;2022-08-19T04:31:17;13.80;;;12.20;;
11037;SDS011;5572;49.540;11.932;2022-08-19T04:33:46;15.17;;;13.60;;
11037;SDS011;5572;49.540;11.932;2022-08-19T04:36:15;19.80;;;14.13;;
11037;SDS011;5572;49.540;11.932;2022-08-19T04:38:45;16.10;;;13.70;;
11037;SDS011;5572;49.540;11.932;2022-08-19T04:41:12;20.57;;;17.07;;
11037;SDS011;5572;49.540;11.932;2022-08-19T04:43:56;19.63;;;15.40;;
11037;SDS011;5572;49.540;11.932;2022-08-19T04:46:22;14.27;;;12.50;;
11037;SDS011;5572;49.540;11.932;2022-08-19T04:48:50;17.23;;;14.23;;
11037;SDS011;5572;49.540;11.932;2022-08-19T04:51:18;19.03;;;14.47;;
11037;SDS011;5572;49.540;11.932;2022-08-19T04:53:45;20.73;;;17.00;;
11037;SDS011;5572;49.540;11.932;2022-08-19T04:56:13;16.57;;;13.20;;
11037;SDS011;5572;49.540;11.932;2022-08-19T04:58:44;18.20;;;16.07;;
11037;SDS011;5572;49.540;11.932;2022-08-19T05:01:12;12.40;;;10.50;;
11037;SDS011;5572;49.540;11.932;2022-08-19T05:03:39;11.30;;;8.60;;
11037;SDS011;5572;49.540;11.932;2022-08-19T05:06:08;17.00;;;14.03;;
11037;SDS011;5572;49.540;11.932;2022-08-19T05:08:37;9.87;;;8.90;;
11037;SDS011;5572;49.540;11.932;2022-08-19T05:11:07;11.90;;;10.73;;
11037;SDS011;5572;49.540;11.932;2022-08-19T05:13:36;17.37;;;14.03;;
11037;SDS011;5572;49.540;11.932;2022-08-19T05:16:03;18.07;;;13.67;;
11037;SDS011;5572;49.540;11.932;2022-08-19T05:18:30;13.00;;;11.63;;
11037;SDS011;5572;49.540;11.932;2022-08-19T05:21:17;15.30;;;13.67;;
11037;SDS011;5572;49.540;11.932;2022-08-19T05:24:03;20.73;;;15.97;;
11037;SDS011;5572;49.540;11.932;2022-08-19T05:26:32;21.80;;;17.37;;
11037;SDS011;5572;49.540;11.932;2022-08-19T05:28:59;20.60;;;16.53;;
11037;SDS011;5572;49.540;11.932;2022-08-19T05:31:25;18.57;;;14.63;;
11037;SDS011;5572;49.540;11.932;2022-08-19T05:33:52;19.07;;;15.53;;
11037;SDS011;5572;49.540;11.932;2022-08-19T05:36:19;21.40;;;16.00;;
11037;SDS011;5572;49.540;11.932;2022-08-19T05:38:46;18.00;;;15.53;;
11037;SDS011;5572;49.540;11.932;2022-08-19T05:41:15;19.27;;;16.13;;
11037;SDS011;5572;49.540;11.932;2022-08-19T05:43:42;18.83;;;14.63;;
11037;SDS011;5572;49.540;11.932;2022-08-19T05:46:08;21.17;;;16.73;;
11037;SDS011;5572;49.540;11.932;2022-08-19T05:48:43;19.40;;;15.73;;
11037;SDS011;5572;49.540;11.932;2022-08-19T05:51:10;17.77;;;14.27;;
11037;SDS011;5572;49.540;11.932;2022-08-19T05:53:37;16.47;;;12.20;;
11037;SDS011;5572;49.540;11.932;2022-08-19T05:56:04;18.53;;;15.33;;
11037;SDS011;5572;49.540;11.932;2022-08-19T05:58:31;17.47;;;13.73;;
11037;SDS011;5572;49.540;11.932;2022-08-19T06:00:58;16.47;;;14.27;;
11037;SDS011;5572;49.540;11.932;2022-08-19T06:03:29;17.63;;;14.97;;
11037;SDS011;5572;49.540;11.932;2022-08-19T06:05:56;13.20;;;11.20;;
11037;SDS011;5572;49.540;11.932;2022-08-19T06:08:24;17.73;;;13.27;;
11037;SDS011;5572;49.540;11.932;2022-08-19T06:10:53;15.37;;;13.17;;
11037;SDS011;5572;49.540;11.932;2022-08-19T06:13:19;15.63;;;13.27;;
11037;SDS011;5572;49.540;11.932;2022-08-19T06:15:47;14.07;;;12.57;;
11037;SDS011;5572;49.540;11.932;2022-08-19T06:18:15;13.63;;;12.00;;
11037;SDS011;5572;49.540;11.932;2022-08-19T06:20:41;10.73;;;9.63;;
11037;SDS011;5572;49.540;11.932;2022-08-19T06:23:08;12.17;;;10.30;;
11037;SDS011;5572;49.540;11.932;2022-08-19T06:25:35;11.07;;;9.80;;
11037;SDS011;5572;49.540;11.932;2022-08-19T06:28:03;14.30;;;11.63;;
11037;SDS011;5572;49.540;11.932;2022-08-19T06:30:30;12.23;;;10.33;;
11037;SDS011;5572;49.540;11.932;2022-08-19T06:32:56;11.23;;;10.03;;
11037;SDS011;5572;49.540;11.932;2022-08-19T06:35:23;15.23;;;12.73;;
11037;SDS011;5572;49.540;11.932;2022-08-19T06:37:50;17.67;;;11.23;;
11037;SDS011;5572;49.540;11.932;2022-08-19T06:40:17;13.60;;;12.20;;
11037;SDS011;5572;49.540;11.932;2022-08-19T06:42:44;12.60;;;11.23;;
11037;SDS011;5572;49.540;11.932;2022-08-19T06:45:13;12.67;;;11.37;;
11037;SDS011;5572;49.540;11.932;2022-08-19T06:47:40;12.97;;;10.40;;
11037;SDS011;5572;49.540;11.932;2022-08-19T06:50:13;12.80;;;11.03;;
11037;SDS011;5572;49.540;11.932;2022-08-19T06:52:40;10.80;;;9.70;;
11037;SDS011;5572;49.540;11.932;2022-08-19T06:55:07;7.97;;;7.13;;
11037;SDS011;5572;49.540;11.932;2022-08-19T06:57:34;7.40;;;6.70;;
11037;SDS011;5572;49.540;11.932;2022-08-19T07:00:02;6.87;;;6.27;;
11037;SDS011;5572;49.540;11.932;2022-08-19T07:02:32;6.20;;;5.57;;
11037;SDS011;5572;49.540;11.932;2022-08-19T07:05:03;8.53;;;6.70;;
11037;SDS011;5572;49.540;11.932;2022-08-19T07:07:30;6.47;;;5.87;;
11037;SDS011;5572;49.540;11.932;2022-08-19T07:10:00;6.83;;;5.73;;
11037;SDS011;5572;49.540;11.932;2022-08-19T07:12:27;6.30;;;5.40;;
11037;SDS011;5572;49.540;11.932;2022-08-19T07:14:56;7.50;;;5.90;;
11037;SDS011;5572;49.540;11.932;2022-08-19T07:17:23;6.70;;;6.10;;
11037;SDS011;5572;49.540;11.932;2022-08-19T07:19:51;7.43;;;6.00;;
11037;SDS011;5572;49.540;11.932;2022-08-19T07:22:18;6.63;;;6.03;;
11037;SDS011;5572;49.540;11.932;2022-08-19T07:24:45;6.63;;;6.03;;
11037;SDS011;5572;49.540;11.932;2022-08-19T07:27:13;8.30;;;6.67;;
11037;SDS011;5572;49.540;11.932;2022-08-19T07:29:39;8.57;;;6.20;;
11037;SDS011;5572;49.540;11.932;2022-08-19T07:32:06;6.73;;;6.13;;
11037;SDS011;5572;49.540;11.932;2022-08-19T07:34:34;6.60;;;6.00;;
11037;SDS011;5572;49.540;11.932;2022-08-19T07:37:04;11.77;;;7.70;;
11037;SDS011;5572;49.540;11.932;2022-08-19T07:39:32;7.43;;;6.83;;
11037;SDS011;5572;49.540;11.932;2022-08-19T07:42:01;11.00;;;8.53;;
11037;SDS011;5572;49.540;11.932;2022-08-19T07:44:31;9.73;;;8.60;;
11037;SDS011;5572;49.540;11.932;2022-08-19T07:46:59;10.90;;;9.80;;
11037;SDS011;5572;49.540;11.932;2022-08-19T07:49:27;14.63;;;11.97;;
11037;SDS011;5572;49.540;11.932;2022-08-19T07:51:59;11.00;;;9.33;;
11037;SDS011;5572;49.540;11.932;2022-08-19T07:54:29;10.23;;;9.23;;
11037;SDS011;5572;49.540;11.932;2022-08-19T07:56:59;11.77;;;10.57;;
11037;SDS011;5572;49.540;11.932;2022-08-19T07:59:25;11.97;;;10.73;;
11037;SDS011;5572;49.540;11.932;2022-08-19T08:01:53;11.30;;;9.80;;
11037;SDS011;5572;49.540;11.932;2022-08-19T08:04:20;16.70;;;10.90;;
11037;SDS011;5572;49.540;11.932;2022-08-19T08:07:05;10.83;;;9.43;;
11037;SDS011;5572;49.540;11.932;2022-08-19T08:09:52;11.80;;;10.60;;
11037;SDS011;5572;49.540;11.932;2022-08-19T08:12:19;11.90;;;10.70;;
11037;SDS011;5572;49.540;11.932;2022-08-19T08:14:52;11.73;;;10.13;;
11037;SDS011;5572;49.540;11.932;2022-08-19T08:17:21;13.07;;;11.70;;
11037;SDS011;5572;49.540;11.932;2022-08-19T08:19:50;12.10;;;9.60;;
11037;SDS011;5572;49.540;11.932;2022-08-19T08:22:19;11.80;;;10.60;;
11037;SDS011;5572;49.540;11.932;2022-08-19T08:25:07;13.93;;;10.80;;
11037;SDS011;5572;49.540;11.932;2022-08-19T08:27:36;11.17;;;9.80;;
11037;SDS011;5572;49.540;11.932;2022-08-19T08:30:04;12.73;;;9.73;;
11037;SDS011;5572;49.540;11.932;2022-08-19T08:32:34;12.73;;;11.07;;
11037;SDS011;5572;49.540;11.932;2022-08-19T08:35:00;12.93;;;11.07;;
11037;SDS011;5572;49.540;11.932;2022-08-19T08:37:27;10.27;;;9.23;;
11037;SDS011;5572;49.540;11.932;2022-08-19T08:39:53;12.27;;;9.70;;
11037;SDS011;5572;49.540;11.932;2022-08-19T08:42:22;12.53;;;10.70;;
11037;SDS011;5572;49.540;11.932;2022-08-19T08:44:54;11.53;;;10.17;;
11037;SDS011;5572;49.540;11.932;2022-08-19T08:47:25;12.77;;;9.17;;
11037;SDS011;5572;49.540;11.932;2022-08-19T08:49:59;13.73;;;10.87;;
11037;SDS011;5572;49.540;11.932;2022-08-19T08:52:29;13.70;;;10.23;;
11037;SDS011;5572;49.540;11.932;2022-08-19T08:55:00;12.03;;;10.83;;
11037;SDS011;5572;49.540;11.932;2022-08-19T08:57:34;9.70;;;8.40;;
11037;SDS011;5572;49.540;11.932;2022-08-19T09:00:04;10.73;;;9.00;;
11037;SDS011;5572;49.540;11.932;2022-08-19T09:02:32;10.73;;;9.63;;
11037;SDS011;5572;49.540;11.932;2022-08-19T09:04:59;10.90;;;9.80;;
11037;SDS011;5572;49.540;11.932;2022-08-19T09:07:32;10.83;;;8.80;;
11037;SDS011;5572;49.540;11.932;2022-08-19T09:10:09;11.07;;;9.93;;
11037;SDS011;5572;49.540;11.932;2022-08-19T09:12:51;10.57;;;8.67;;
11037;SDS011;5572;49.540;11.932;2022-08-19T09:15:28;9.20;;;8.30;;
11037;SDS011;5572;49.540;11.932;2022-08-19T09:17:59;12.47;;;10.60;;
11037;SDS011;5572;49.540;11.932;2022-08-19T09:20:26;11.27;;;10.13;;
11037;SDS011;5572;49.540;11.932;2022-08-19T09:22:53;12.93;;;10.53;;
11037;SDS011;5572;49.540;11.932;2022-08-19T09:25:21;13.07;;;10.23;;
11037;SDS011;5572;49.540;11.932;2022-08-19T09:27:50;9.17;;;8.27;;
11037;SDS011;5572;49.540;11.932;2022-08-19T09:30:19;11.27;;;9.50;;
11037;SDS011;5572;49.540;11.932;2022-08-19T09:32:48;9.40;;;8.23;;
11037;SDS011;5572;49.540;11.932;2022-08-19T09:35:17;12.67;;;8.93;;
11037;SDS011;5572;49.540;11.932;2022-08-19T09:37:44;9.37;;;8.43;;
11037;SDS011;5572;49.540;11.932;2022-08-19T09:40:11;9.83;;;8.67;;
11037;SDS011;5572;49.540;11.932;2022-08-19T09:42:38;9.07;;;8.17;;
11037;SDS011;5572;49.540;11.932;2022-08-19T09:45:06;7.40;;;6.73;;
11037;SDS011;5572;49.540;11.932;2022-08-19T09:47:33;7.83;;;7.03;;
11037;SDS011;5572;49.540;11.932;2022-08-19T09:50:03;7.43;;;6.73;;
11037;SDS011;5572;49.540;11.932;2022-08-19T09:52:30;9.03;;;7.40;;
11037;SDS011;5572;49.540;11.932;2022-08-19T09:54:57;10.97;;;8.70;;
11037;SDS011;5572;49.540;11.932;2022-08-19T09:57:24;9.80;;;8.17;;
11037;SDS011;5572;49.540;11.932;2022-08-19T09:59:50;9.90;;;7.47;;
11037;SDS011;5572;49.540;11.932;2022-08-19T10:02:19;7.57;;;6.87;;
11037;SDS011;5572;49.540;11.932;2022-08-19T10:04:46;9.40;;;8.00;;
11037;SDS011;5572;49.540;11.932;2022-08-19T10:07:30;8.30;;;7.50;;
11037;SDS011;5572;49.540;11.932;2022-08-19T10:09:56;8.13;;;7.43;;
11037;SDS011;5572;49.540;11.932;2022-08-19T10:12:23;8.77;;;7.83;;
11037;SDS011;5572;49.540;11.932;2022-08-19T10:14:49;9.30;;;8.17;;
11037;SDS011;5572;49.540;11.932;2022-08-19T10:17:19;8.00;;;7.30;;
11037;SDS011;5572;49.540;11.932;2022-08-19T10:19:46;8.80;;;7.83;;
11037;SDS011;5572;49.540;11.932;2022-08-19T10:22:12;8.10;;;7.40;;
11037;SDS011;5572;49.540;11.932;2022-08-19T10:24:39;8.10;;;7.30;;
11037;SDS011;5572;49.540;11.932;2022-08-19T10:27:06;10.10;;;7.33;;
11037;SDS011;5572;49.540;11.932;2022-08-19T10:29:34;8.03;;;7.23;;
11037;SDS011;5572;49.540;11.932;2022-08-19T10:32:01;8.37;;;7.53;;
11037;SDS011;5572;49.540;11.932;2022-08-19T10:34:30;8.73;;;7.83;;
11037;SDS011;5572;49.540;11.932;2022-08-19T10:36:58;8.17;;;7.37;;
11037;SDS011;5572;49.540;11.932;2022-08-19T10:39:26;7.00;;;6.40;;
11037;SDS011;5572;49.540;11.932;2022-08-19T10:41:54;7.93;;;7.13;;
11037;SDS011;5572;49.540;11.932;2022-08-19T10:44:21;7.73;;;7.03;;
11037;SDS011;5572;49.540;11.932;2022-08-19T10:46:48;7.17;;;6.57;;
11037;SDS011;5572;49.540;11.932;2022-08-19T10:49:14;7.83;;;7.03;;
11037;SDS011;5572;49.540;11.932;2022-08-19T10:51:42;8.27;;;7.47;;
11037;SDS011;5572;49.540;11.932;2022-08-19T10:54:26;7.33;;;6.67;;
11037;SDS011;5572;49.540;11.932;2022-08-19T10:57:13;11.87;;;6.77;;
11037;SDS011;5572;49.540;11.932;2022-08-19T10:59:39;7.00;;;6.30;;
11037;SDS011;5572;49.540;11.932;2022-08-19T11:02:07;8.03;;;6.90;;
11037;SDS011;5572;49.540;11.932;2022-08-19T11:04:35;9.27;;;7.70;;
11037;SDS011;5572;49.540;11.932;2022-08-19T11:07:03;8.10;;;7.30;;
11037;SDS011;5572;49.540;11.932;2022-08-19T11:09:31;8.70;;;7.77;;
11037;SDS011;5572;49.540;11.932;2022-08-19T11:12:02;8.93;;;8.03;;
11037;SDS011;5572;49.540;11.932;2022-08-19T11:14:29;11.60;;;7.43;;
11037;SDS011;5572;49.540;11.932;2022-08-19T11:16:57;9.77;;;7.60;;
11037;SDS011;5572;49.540;11.932;2022-08-19T11:19:24;7.07;;;6.37;;
11037;SDS011;5572;49.540;11.932;2022-08-19T11:21:51;9.20;;;7.43;;
11037;SDS011;5572;49.540;11.932;2022-08-19T11:24:21;10.63;;;8.17;;
11037;SDS011;5572;49.540;11.932;2022-08-19T11:26:51;8.63;;;7.43;;
11037;SDS011;5572;49.540;11.932;2022-08-19T11:29:22;8.03;;;7.23;;
11037;SDS011;5572;49.540;11.932;2022-08-19T11:31:51;8.80;;;7.50;;
11037;SDS011;5572;49.540;11.932;2022-08-19T11:34:19;7.57;;;6.73;;
11037;SDS011;5572;49.540;11.932;2022-08-19T11:36:48;8.33;;;7.53;;
11037;SDS011;5572;49.540;11.932;2022-08-19T11:39:17;9.50;;;8.07;;
11037;SDS011;5572;49.540;11.932;2022-08-19T11:41:46;9.70;;;8.70;;
11037;SDS011;5572;49.540;11.932;2022-08-19T11:44:14;7.07;;;6.30;;
11037;SDS011;5572;49.540;11.932;2022-08-19T11:46:41;9.23;;;7.13;;
11037;SDS011;5572;49.540;11.932;2022-08-19T11:49:10;9.03;;;8.13;;
11037;SDS011;5572;49.540;11.932;2022-08-19T11:51:37;8.57;;;7.67;;
11037;SDS011;5572;49.540;11.932;2022-08-19T11:54:04;10.63;;;8.53;;
11037;SDS011;5572;49.540;11.932;2022-08-19T11:56:32;9.13;;;8.17;;
11037;SDS011;5572;49.540;11.932;2022-08-19T11:59:00;10.23;;;9.23;;
11037;SDS011;5572;49.540;11.932;2022-08-19T12:01:27;9.90;;;8.90;;
11037;SDS011;5572;49.540;11.932;2022-08-19T12:03:54;8.40;;;7.57;;
11037;SDS011;5572;49.540;11.932;2022-08-19T12:06:24;8.47;;;7.53;;
11037;SDS011;5572;49.540;11.932;2022-08-19T12:08:53;9.27;;;7.77;;
11037;SDS011;5572;49.540;11.932;2022-08-19T12:11:21;14.43;;;8.50;;
11037;SDS011;5572;49.540;11.932;2022-08-19T12:13:48;8.23;;;7.43;;
11037;SDS011;5572;49.540;11.932;2022-08-19T12:16:17;8.83;;;7.93;;
11037;SDS011;5572;49.540;11.932;2022-08-19T12:18:45;11.20;;;8.07;;
11037;SDS011;5572;49.540;11.932;2022-08-19T12:21:13;9.03;;;8.13;;
11037;SDS011;5572;49.540;11.932;2022-08-19T12:23:40;8.27;;;7.47;;
11037;SDS011;5572;49.540;11.932;2022-08-19T12:26:06;9.17;;;8.13;;
11037;SDS011;5572;49.540;11.932;2022-08-19T12:28:35;10.17;;;9.17;;
11037;SDS011;5572;49.540;11.932;2022-08-19T12:31:02;9.70;;;8.57;;
11037;SDS011;5572;49.540;11.932;2022-08-19T12:33:30;15.03;;;7.83;;
11037;SDS011;5572;49.540;11.932;2022-08-19T12:35:59;10.17;;;8.07;;
11037;SDS011;5572;49.540;11.932;2022-08-19T12:38:28;9.30;;;8.33;;
11037;SDS011;5572;49.540;11.932;2022-08-19T12:40:55;14.20;;;9.10;;
11037;SDS011;5572;49.540;11.932;2022-08-19T12:43:21;11.53;;;9.40;;
11037;SDS011;5572;49.540;11.932;2022-08-19T12:45:48;12.73;;;8.90;;
11037;SDS011;5572;49.540;11.932;2022-08-19T12:48:14;11.47;;;9.53;;
11037;SDS011;5572;49.540;11.932;2022-08-19T12:50:42;10.37;;;8.67;;
11037;SDS011;5572;49.540;11.932;2022-08-19T12:53:11;9.37;;;8.27;;
11037;SDS011;5572;49.540;11.932;2022-08-19T12:55:38;11.20;;;8.37;;
11037;SDS011;5572;49.540;11.932;2022-08-19T12:58:05;9.80;;;8.80;;
11037;SDS011;5572;49.540;11.932;2022-08-19T13:00:31;10.13;;;9.13;;
11037;SDS011;5572;49.540;11.932;2022-08-19T13:02:59;8.40;;;7.50;;
11037;SDS011;5572;49.540;11.932;2022-08-19T13:05:26;10.07;;;8.40;;
11037;SDS011;5572;49.540;11.932;2022-08-19T13:08:00;9.13;;;8.13;;
11037;SDS011;5572;49.540;11.932;2022-08-19T13:10:27;10.10;;;8.27;;
11037;SDS011;5572;49.540;11.932;2022-08-19T13:12:56;10.03;;;8.00;;
11037;SDS011;5572;49.540;11.932;2022-08-19T13:15:24;11.67;;;8.73;;
11037;SDS011;5572;49.540;11.932;2022-08-19T13:17:53;11.33;;;8.30;;
11037;SDS011;5572;49.540;11.932;2022-08-19T13:20:21;11.63;;;9.13;;
11037;SDS011;5572;49.540;11.932;2022-08-19T13:22:48;8.83;;;7.57;;
11037;SDS011;5572;49.540;11.932;2022-08-19T13:25:16;7.53;;;6.87;;
11037;SDS011;5572;49.540;11.932;2022-08-19T13:27:45;8.30;;;7.50;;
11037;SDS011;5572;49.540;11.932;2022-08-19T13:30:14;8.17;;;7.13;;
11037;SDS011;5572;49.540;11.932;2022-08-19T13:32:59;8.67;;;7.50;;
11037;SDS011;5572;49.540;11.932;2022-08-19T13:35:40;8.37;;;7.23;;
11037;SDS011;5572;49.540;11.932;2022-08-19T13:38:08;7.00;;;6.30;;
11037;SDS011;5572;49.540;11.932;2022-08-19T13:40:36;8.50;;;7.07;;
11037;SDS011;5572;49.540;11.932;2022-08-19T13:43:03;8.07;;;7.20;;
11037;SDS011;5572;49.540;11.932;2022-08-19T13:45:31;7.23;;;6.53;;
11037;SDS011;5572;49.540;11.932;2022-08-19T13:47:59;9.63;;;7.33;;
11037;SDS011;5572;49.540;11.932;2022-08-19T13:50:30;7.17;;;6.47;;
11037;SDS011;5572;49.540;11.932;2022-08-19T13:52:57;7.50;;;6.70;;
11037;SDS011;5572;49.540;11.932;2022-08-19T13:55:24;6.77;;;6.07;;
11037;SDS011;5572;49.540;11.932;2022-08-19T13:57:53;6.50;;;6.00;;
11037;SDS011;5572;49.540;11.932;2022-08-19T14:00:21;9.07;;;6.63;;
11037;SDS011;5572;49.540;11.932;2022-08-19T14:02:52;10.57;;;6.67;;
11037;SDS011;5572;49.540;11.932;2022-08-19T14:05:20;7.10;;;6.40;;
11037;SDS011;5572;49.540;11.932;2022-08-19T14:07:47;7.00;;;6.30;;
11037;SDS011;5572;49.540;11.932;2022-08-19T14:10:14;7.20;;;6.50;;
11037;SDS011;5572;49.540;11.932;2022-08-19T14:12:41;8.23;;;7.13;;
11037;SDS011;5572;49.540;11.932;2022-08-19T14:15:10;7.80;;;6.60;;
11037;SDS011;5572;49.540;11.932;2022-08-19T14:17:38;6.90;;;6.30;;
11037;SDS011;5572;49.540;11.932;2022-08-19T14:20:06;6.70;;;6.03;;
11037;SDS011;5572;49.540;11.932;2022-08-19T14:22:34;8.97;;;7.77;;
11037;SDS011;5572;49.540;11.932;2022-08-19T14:25:02;11.30;;;8.00;;
11037;SDS011;5572;49.540;11.932;2022-08-19T14:27:29;9.03;;;7.70;;
11037;SDS011;5572;49.540;11.932;2022-08-19T14:29:56;9.13;;;8.20;;
11037;SDS011;5572;49.540;11.932;2022-08-19T14:32:24;10.07;;;8.67;;
11037;SDS011;5572;49.540;11.932;2022-08-19T14:34:51;10.57;;;9.03;;
11037;SDS011;5572;49.540;11.932;2022-08-19T14:37:19;8.77;;;7.87;;
11037;SDS011;5572;49.540;11.932;2022-08-19T14:39:47;12.43;;;8.17;;
11037;SDS011;5572;49.540;11.932;2022-08-19T14:42:13;9.03;;;8.13;;
11037;SDS011;5572;49.540;11.932;2022-08-19T14:44:40;8.77;;;7.87;;